sensor_id;sensor_type;location;lat;lon;timestamp;pressure;altitude;pressure_sealevel;temperature;humidity
75609;BME280;64194;51.044;13.780;2023-01-30T00:00:40;100542.59;;;-0.05;61.53
75609;BME280;64194;51.044;13.780;2023-01-30T00:04:42;100543.44;;;-0.01;60.78
75609;BME280;64194;51.044;13.780;2023-01-30T00:08:43;100525.09;;;0.04;60.71
75609;BME280;64194;51.044;13.780;2023-01-30T00:12:45;100523.28;;;0.07;60.62
75609;BME280;64194;51.044;13.780;2023-01-30T00:16:47;100532.88;;;0.07;60.31
75609;BME280;64194;51.044;13.780;2023-01-30T00:20:57;100511.13;;;0.06;60.05
75609;BME280;64194;51.044;13.780;2023-01-30T00:24:59;100512.75;;;0.15;60.13
75609;BME280;64194;51.044;13.780;2023-01-30T00:29:01;100507.38;;;0.22;59.56
75609;BME280;64194;51.044;13.780;2023-01-30T00:33:04;100508.22;;;0.26;59.82
75609;BME280;64194;51.044;13.780;2023-01-30T00:37:05;100496.84;;;0.28;59.77
75609;BME280;64194;51.044;13.780;2023-01-30T00:41:09;100484.78;;;0.21;60.38
75609;BME280;64194;51.044;13.780;2023-01-30T00:45:11;100478.59;;;0.27;60.49
75609;BME280;64194;51.044;13.780;2023-01-30T00:49:32;100468.97;;;0.27;59.97
75609;BME280;64194;51.044;13.780;2023-01-30T00:53:33;100454.19;;;0.28;60.02
75609;BME280;64194;51.044;13.780;2023-01-30T00:57:35;100449.78;;;0.31;60.05
75609;BME280;64194;51.044;13.780;2023-01-30T01:01:36;100423.50;;;0.40;59.74
75609;BME280;64194;51.044;13.780;2023-01-30T01:05:38;100438.38;;;0.37;60.01
75609;BME280;64194;51.044;13.780;2023-01-30T01:09:40;100440.03;;;0.39;60.27
75609;BME280;64194;51.044;13.780;2023-01-30T01:13:42;100434.81;;;0.41;60.37
75609;BME280;64194;51.044;13.780;2023-01-30T01:17:43;100422.59;;;0.43;60.38
75609;BME280;64194;51.044;13.780;2023-01-30T01:21:45;100422.50;;;0.46;61.02
75609;BME280;64194;51.044;13.780;2023-01-30T01:25:47;100416.25;;;0.55;61.06
75609;BME280;64194;51.044;13.780;2023-01-30T01:29:49;100402.25;;;0.59;61.35
75609;BME280;64194;51.044;13.780;2023-01-30T01:33:51;100377.03;;;0.56;61.77
75609;BME280;64194;51.044;13.780;2023-01-30T01:37:53;100363.16;;;0.53;62.28
75609;BME280;64194;51.044;13.780;2023-01-30T01:41:55;100348.31;;;0.55;62.33
75609;BME280;64194;51.044;13.780;2023-01-30T01:46:19;100355.34;;;0.53;62.56
75609;BME280;64194;51.044;13.780;2023-01-30T01:50:26;100344.25;;;0.40;63.21
75609;BME280;64194;51.044;13.780;2023-01-30T01:54:46;100342.59;;;0.36;63.37
75609;BME280;64194;51.044;13.780;2023-01-30T01:58:52;100327.72;;;0.39;63.81
75609;BME280;64194;51.044;13.780;2023-01-30T02:02:58;100296.44;;;0.36;65.00
75609;BME280;64194;51.044;13.780;2023-01-30T02:07:00;100280.00;;;0.31;65.35
75609;BME280;64194;51.044;13.780;2023-01-30T02:11:13;100245.38;;;0.22;65.96
75609;BME280;64194;51.044;13.780;2023-01-30T02:15:18;100236.75;;;0.17;66.18
75609;BME280;64194;51.044;13.780;2023-01-30T02:28:55;100237.66;;;0.16;68.26
75609;BME280;64194;51.044;13.780;2023-01-30T02:33:19;100209.72;;;0.19;69.29
75609;BME280;64194;51.044;13.780;2023-01-30T02:46:33;100228.66;;;0.30;70.10
75609;BME280;64194;51.044;13.780;2023-01-30T02:50:43;100238.91;;;0.39;69.88
75609;BME280;64194;51.044;13.780;2023-01-30T02:54:45;100220.97;;;0.63;69.56
75609;BME280;64194;51.044;13.780;2023-01-30T02:58:51;100195.47;;;0.74;69.18
75609;BME280;64194;51.044;13.780;2023-01-30T03:11:59;100151.13;;;1.05;69.49
75609;BME280;64194;51.044;13.780;2023-01-30T03:16:12;100155.31;;;1.12;69.21
75609;BME280;64194;51.044;13.780;2023-01-30T03:20:18;100147.31;;;1.18;69.35
75609;BME280;64194;51.044;13.780;2023-01-30T03:24:21;100131.38;;;1.27;69.15
75609;BME280;64194;51.044;13.780;2023-01-30T03:28:23;100106.06;;;1.27;69.22
75609;BME280;64194;51.044;13.780;2023-01-30T03:32:25;100076.06;;;1.41;69.03
75609;BME280;64194;51.044;13.780;2023-01-30T03:36:27;100088.44;;;1.36;69.55
75609;BME280;64194;51.044;13.780;2023-01-30T03:40:30;100084.13;;;1.33;70.02
75609;BME280;64194;51.044;13.780;2023-01-30T03:44:32;100069.31;;;1.32;70.21
75609;BME280;64194;51.044;13.780;2023-01-30T03:48:34;100066.88;;;1.26;70.54
75609;BME280;64194;51.044;13.780;2023-01-30T03:52:35;100034.81;;;1.19;70.70
75609;BME280;64194;51.044;13.780;2023-01-30T03:56:41;100050.38;;;1.24;70.62
75609;BME280;64194;51.044;13.780;2023-01-30T04:00:43;100051.06;;;1.31;70.44
75609;BME280;64194;51.044;13.780;2023-01-30T04:04:45;100053.88;;;1.23;70.87
75609;BME280;64194;51.044;13.780;2023-01-30T04:08:47;100044.63;;;1.11;71.18
75609;BME280;64194;51.044;13.780;2023-01-30T04:13:01;100057.63;;;1.14;71.72
75609;BME280;64194;51.044;13.780;2023-01-30T04:17:04;100028.84;;;1.14;71.86
75609;BME280;64194;51.044;13.780;2023-01-30T04:21:25;100029.47;;;1.22;71.36
75609;BME280;64194;51.044;13.780;2023-01-30T04:25:27;100014.38;;;1.32;71.46
75609;BME280;64194;51.044;13.780;2023-01-30T04:29:30;100021.44;;;1.30;71.38
75609;BME280;64194;51.044;13.780;2023-01-30T04:33:34;100008.97;;;1.38;71.11
75609;BME280;64194;51.044;13.780;2023-01-30T04:37:37;100000.97;;;1.44;70.67
75609;BME280;64194;51.044;13.780;2023-01-30T04:41:40;99998.06;;;1.53;70.86
75609;BME280;64194;51.044;13.780;2023-01-30T04:45:44;99995.97;;;1.64;70.71
75609;BME280;64194;51.044;13.780;2023-01-30T04:49:45;99995.31;;;1.86;69.60
75609;BME280;64194;51.044;13.780;2023-01-30T04:53:49;99981.66;;;2.04;69.05
75609;BME280;64194;51.044;13.780;2023-01-30T04:57:50;99963.03;;;2.13;68.93
75609;BME280;64194;51.044;13.780;2023-01-30T05:01:52;99950.34;;;2.27;68.41
75609;BME280;64194;51.044;13.780;2023-01-30T05:05:54;99950.91;;;2.37;68.11
75609;BME280;64194;51.044;13.780;2023-01-30T05:09:55;99943.69;;;2.43;68.04
75609;BME280;64194;51.044;13.780;2023-01-30T05:13:57;99920.97;;;2.44;68.54
75609;BME280;64194;51.044;13.780;2023-01-30T05:17:59;99919.19;;;2.44;68.14
75609;BME280;64194;51.044;13.780;2023-01-30T05:22:01;99899.78;;;2.50;67.87
75609;BME280;64194;51.044;13.780;2023-01-30T05:26:03;99901.38;;;2.54;68.00
75609;BME280;64194;51.044;13.780;2023-01-30T05:30:05;99880.16;;;2.62;67.74
75609;BME280;64194;51.044;13.780;2023-01-30T05:34:10;99882.53;;;2.68;67.56
75609;BME280;64194;51.044;13.780;2023-01-30T05:38:12;99869.28;;;2.72;67.39
75609;BME280;64194;51.044;13.780;2023-01-30T05:42:14;99871.72;;;2.77;67.44
75609;BME280;64194;51.044;13.780;2023-01-30T05:46:15;99855.00;;;2.79;67.57
75609;BME280;64194;51.044;13.780;2023-01-30T05:50:17;99859.09;;;2.88;68.40
75609;BME280;64194;51.044;13.780;2023-01-30T05:54:19;99847.69;;;2.89;68.55
75609;BME280;64194;51.044;13.780;2023-01-30T05:58:21;99851.03;;;2.92;68.88
75609;BME280;64194;51.044;13.780;2023-01-30T06:02:23;99828.91;;;3.00;69.47
75609;BME280;64194;51.044;13.780;2023-01-30T06:06:25;99836.66;;;3.03;68.92
75609;BME280;64194;51.044;13.780;2023-01-30T06:10:26;99830.69;;;2.99;69.37
75609;BME280;64194;51.044;13.780;2023-01-30T06:14:28;99846.28;;;3.02;69.58
75609;BME280;64194;51.044;13.780;2023-01-30T06:18:29;99836.47;;;3.07;69.37
75609;BME280;64194;51.044;13.780;2023-01-30T06:22:31;99843.25;;;3.13;69.83
75609;BME280;64194;51.044;13.780;2023-01-30T06:26:32;99835.34;;;3.14;69.41
75609;BME280;64194;51.044;13.780;2023-01-30T06:30:34;99830.13;;;3.13;68.63
75609;BME280;64194;51.044;13.780;2023-01-30T06:34:36;99813.13;;;3.23;69.36
75609;BME280;64194;51.044;13.780;2023-01-30T06:38:37;99824.59;;;3.20;69.05
75609;BME280;64194;51.044;13.780;2023-01-30T06:42:46;99803.72;;;3.17;70.05
75609;BME280;64194;51.044;13.780;2023-01-30T06:46:48;99807.28;;;3.16;71.46
75609;BME280;64194;51.044;13.780;2023-01-30T06:50:50;99819.69;;;3.11;72.04
75609;BME280;64194;51.044;13.780;2023-01-30T06:54:51;99826.78;;;3.09;72.20
75609;BME280;64194;51.044;13.780;2023-01-30T06:58:53;99830.31;;;3.08;74.96
75609;BME280;64194;51.044;13.780;2023-01-30T07:02:54;99809.19;;;3.11;76.86
75609;BME280;64194;51.044;13.780;2023-01-30T07:06:56;99812.56;;;2.93;76.67
75609;BME280;64194;51.044;13.780;2023-01-30T07:10:58;99823.38;;;2.84;78.04
75609;BME280;64194;51.044;13.780;2023-01-30T07:15:00;99830.47;;;2.82;80.23
75609;BME280;64194;51.044;13.780;2023-01-30T07:19:01;99821.22;;;2.72;80.18
75609;BME280;64194;51.044;13.780;2023-01-30T07:23:03;99810.06;;;2.67;80.22
75609;BME280;64194;51.044;13.780;2023-01-30T07:27:08;99798.72;;;2.66;80.05
75609;BME280;64194;51.044;13.780;2023-01-30T07:31:10;99802.66;;;2.78;79.84
75609;BME280;64194;51.044;13.780;2023-01-30T07:35:12;99805.59;;;2.92;78.16
75609;BME280;64194;51.044;13.780;2023-01-30T07:39:14;99781.63;;;3.01;78.24
75609;BME280;64194;51.044;13.780;2023-01-30T07:43:15;99778.75;;;3.07;76.82
75609;BME280;64194;51.044;13.780;2023-01-30T07:47:18;99770.41;;;3.19;78.06
75609;BME280;64194;51.044;13.780;2023-01-30T07:51:20;99781.28;;;3.32;77.73
75609;BME280;64194;51.044;13.780;2023-01-30T07:55:22;99781.63;;;3.45;75.56
75609;BME280;64194;51.044;13.780;2023-01-30T07:59:23;99785.53;;;3.56;74.65
75609;BME280;64194;51.044;13.780;2023-01-30T08:03:25;99776.78;;;3.56;74.28
75609;BME280;64194;51.044;13.780;2023-01-30T08:07:27;99777.69;;;3.55;74.63
75609;BME280;64194;51.044;13.780;2023-01-30T08:11:28;99767.19;;;3.55;74.39
75609;BME280;64194;51.044;13.780;2023-01-30T08:15:30;99769.31;;;3.47;75.95
75609;BME280;64194;51.044;13.780;2023-01-30T08:19:34;99748.91;;;3.53;75.26
75609;BME280;64194;51.044;13.780;2023-01-30T08:23:35;99767.75;;;3.63;76.11
75609;BME280;64194;51.044;13.780;2023-01-30T08:27:37;99759.66;;;3.47;78.02
75609;BME280;64194;51.044;13.780;2023-01-30T08:31:38;99785.78;;;3.28;79.51
75609;BME280;64194;51.044;13.780;2023-01-30T08:35:40;99754.44;;;3.25;79.95
75609;BME280;64194;51.044;13.780;2023-01-30T08:39:42;99770.94;;;3.27;78.93
75609;BME280;64194;51.044;13.780;2023-01-30T08:43:44;99758.19;;;3.40;78.47
75609;BME280;64194;51.044;13.780;2023-01-30T08:47:45;99746.75;;;3.63;78.03
75609;BME280;64194;51.044;13.780;2023-01-30T08:51:47;99752.72;;;3.66;76.17
75609;BME280;64194;51.044;13.780;2023-01-30T08:55:52;99754.25;;;3.92;74.82
75609;BME280;64194;51.044;13.780;2023-01-30T08:59:54;99749.88;;;4.69;73.49
75609;BME280;64194;51.044;13.780;2023-01-30T09:03:55;99769.88;;;4.73;71.27
75609;BME280;64194;51.044;13.780;2023-01-30T09:07:57;99752.09;;;4.59;71.08
75609;BME280;64194;51.044;13.780;2023-01-30T09:11:59;99758.00;;;4.46;71.60
75609;BME280;64194;51.044;13.780;2023-01-30T09:16:00;99754.25;;;4.31;72.68
75609;BME280;64194;51.044;13.780;2023-01-30T09:20:04;99740.88;;;4.17;72.78
75609;BME280;64194;51.044;13.780;2023-01-30T09:24:07;99758.81;;;4.28;71.15
75609;BME280;64194;51.044;13.780;2023-01-30T09:28:08;99761.25;;;4.70;70.46
75609;BME280;64194;51.044;13.780;2023-01-30T09:32:10;99749.63;;;4.75;70.12
75609;BME280;64194;51.044;13.780;2023-01-30T09:36:11;99751.53;;;4.72;70.78
75609;BME280;64194;51.044;13.780;2023-01-30T09:40:15;99758.84;;;4.65;70.71
75609;BME280;64194;51.044;13.780;2023-01-30T09:48:40;99749.91;;;4.50;71.48
75609;BME280;64194;51.044;13.780;2023-01-30T09:53:46;99750.03;;;4.66;70.67
75609;BME280;64194;51.044;13.780;2023-01-30T09:57:23;99742.00;;;5.07;69.65
75609;BME280;64194;51.044;13.780;2023-01-30T10:01:39;99721.94;;;5.74;66.73
75609;BME280;64194;51.044;13.780;2023-01-30T10:10:23;99695.16;;;10.18;53.57
75609;BME280;64194;51.044;13.780;2023-01-30T10:19:46;99679.03;;;7.62;60.28
75609;BME280;64194;51.044;13.780;2023-01-30T10:28:26;99688.34;;;8.68;56.57
75609;BME280;64194;51.044;13.780;2023-01-30T10:32:41;99662.53;;;7.73;57.00
75609;BME280;64194;51.044;13.780;2023-01-30T10:41:11;99695.94;;;6.83;59.55
75609;BME280;64194;51.044;13.780;2023-01-30T10:45:17;99704.69;;;6.67;60.48
75609;BME280;64194;51.044;13.780;2023-01-30T10:49:35;99695.34;;;6.78;60.20
75609;BME280;64194;51.044;13.780;2023-01-30T10:53:52;99707.59;;;6.79;62.34
75609;BME280;64194;51.044;13.780;2023-01-30T11:02:34;99710.84;;;5.68;64.97
75609;BME280;64194;51.044;13.780;2023-01-30T11:06:39;99721.28;;;5.88;64.32
75609;BME280;64194;51.044;13.780;2023-01-30T11:10:40;99704.66;;;5.86;64.43
75609;BME280;64194;51.044;13.780;2023-01-30T11:14:54;99700.69;;;6.12;65.22
75609;BME280;64194;51.044;13.780;2023-01-30T11:18:56;99698.56;;;7.14;60.29
75609;BME280;64194;51.044;13.780;2023-01-30T11:23:30;99702.72;;;7.18;59.42
75609;BME280;64194;51.044;13.780;2023-01-30T11:27:33;99692.66;;;5.98;64.61
75609;BME280;64194;51.044;13.780;2023-01-30T11:31:38;99694.97;;;5.52;65.46
75609;BME280;64194;51.044;13.780;2023-01-30T11:35:58;99698.38;;;5.37;66.59
75609;BME280;64194;51.044;13.780;2023-01-30T11:44:24;99690.31;;;5.23;67.13
75609;BME280;64194;51.044;13.780;2023-01-30T11:48:29;99693.09;;;5.20;67.69
75609;BME280;64194;51.044;13.780;2023-01-30T11:52:51;99685.06;;;5.23;68.90
75609;BME280;64194;51.044;13.780;2023-01-30T11:56:57;99674.75;;;5.18;70.21
75609;BME280;64194;51.044;13.780;2023-01-30T12:01:02;99688.75;;;5.01;68.07
75609;BME280;64194;51.044;13.780;2023-01-30T12:05:24;99687.63;;;4.88;68.63
75609;BME280;64194;51.044;13.780;2023-01-30T12:09:36;99657.75;;;4.89;69.78
75609;BME280;64194;51.044;13.780;2023-01-30T12:13:41;99656.38;;;4.99;67.93
75609;BME280;64194;51.044;13.780;2023-01-30T12:18:00;99638.84;;;5.17;70.32
75609;BME280;64194;51.044;13.780;2023-01-30T12:22:25;99636.28;;;5.33;67.44
75609;BME280;64194;51.044;13.780;2023-01-30T12:26:33;99607.50;;;6.44;65.58
75609;BME280;64194;51.044;13.780;2023-01-30T12:30:43;99616.19;;;10.21;54.89
75609;BME280;64194;51.044;13.780;2023-01-30T12:34:47;99596.75;;;12.86;46.09
75609;BME280;64194;51.044;13.780;2023-01-30T12:39:10;99611.28;;;12.82;45.76
75609;BME280;64194;51.044;13.780;2023-01-30T13:13:57;99616.88;;;6.65;62.59
75609;BME280;64194;51.044;13.780;2023-01-30T13:18:14;99597.09;;;11.24;49.62
75609;BME280;64194;51.044;13.780;2023-01-30T13:22:27;99597.44;;;10.48;52.15
75609;BME280;64194;51.044;13.780;2023-01-30T13:26:33;99611.38;;;10.75;49.99
75609;BME280;64194;51.044;13.780;2023-01-30T13:30:38;99597.25;;;13.44;43.90
75609;BME280;64194;51.044;13.780;2023-01-30T13:34:44;99591.22;;;17.17;35.22
75609;BME280;64194;51.044;13.780;2023-01-30T13:38:59;99593.69;;;18.91;30.89
75609;BME280;64194;51.044;13.780;2023-01-30T13:43:26;99603.19;;;14.49;38.91
75609;BME280;64194;51.044;13.780;2023-01-30T13:52:13;99574.75;;;16.66;36.93
75609;BME280;64194;51.044;13.780;2023-01-30T14:00:53;99593.88;;;15.32;39.30
75609;BME280;64194;51.044;13.780;2023-01-30T14:04:56;99585.94;;;14.33;39.73
75609;BME280;64194;51.044;13.780;2023-01-30T14:09:02;99610.97;;;13.39;42.33
75609;BME280;64194;51.044;13.780;2023-01-30T14:13:05;99615.56;;;12.40;42.77
75609;BME280;64194;51.044;13.780;2023-01-30T14:17:11;99612.34;;;11.22;46.18
75609;BME280;64194;51.044;13.780;2023-01-30T14:21:20;99602.16;;;10.32;49.54
75609;BME280;64194;51.044;13.780;2023-01-30T14:29:51;99609.22;;;8.91;52.69
75609;BME280;64194;51.044;13.780;2023-01-30T14:33:53;99630.78;;;9.11;53.21
75609;BME280;64194;51.044;13.780;2023-01-30T14:38:18;99624.56;;;8.02;57.18
75609;BME280;64194;51.044;13.780;2023-01-30T14:42:28;99610.16;;;7.35;57.75
75609;BME280;64194;51.044;13.780;2023-01-30T14:50:32;99612.59;;;6.79;59.98
75609;BME280;64194;51.044;13.780;2023-01-30T14:54:38;99599.69;;;6.58;61.88
75609;BME280;64194;51.044;13.780;2023-01-30T14:58:58;99603.91;;;6.61;62.02
75609;BME280;64194;51.044;13.780;2023-01-30T15:03:07;99612.03;;;6.58;61.40
75609;BME280;64194;51.044;13.780;2023-01-30T15:07:19;99619.94;;;6.42;62.83
75609;BME280;64194;51.044;13.780;2023-01-30T15:11:28;99616.03;;;6.01;61.83
75609;BME280;64194;51.044;13.780;2023-01-30T15:20:08;99627.88;;;5.76;64.15
75609;BME280;64194;51.044;13.780;2023-01-30T15:28:44;99641.13;;;5.58;65.02
75609;BME280;64194;51.044;13.780;2023-01-30T15:33:06;99642.94;;;5.40;66.72
75609;BME280;64194;51.044;13.780;2023-01-30T15:41:36;99674.84;;;5.34;67.33
75609;BME280;64194;51.044;13.780;2023-01-30T15:49:50;99702.03;;;4.98;72.26
75609;BME280;64194;51.044;13.780;2023-01-30T15:53:55;99725.19;;;4.73;74.10
75609;BME280;64194;51.044;13.780;2023-01-30T15:58:03;99737.25;;;4.40;75.60
75609;BME280;64194;51.044;13.780;2023-01-30T16:02:33;99734.13;;;4.11;76.96
75609;BME280;64194;51.044;13.780;2023-01-30T16:06:36;99723.38;;;3.97;77.93
75609;BME280;64194;51.044;13.780;2023-01-30T16:10:45;99733.09;;;3.95;76.56
75609;BME280;64194;51.044;13.780;2023-01-30T16:14:47;99743.28;;;4.03;76.96
75609;BME280;64194;51.044;13.780;2023-01-30T16:18:52;99726.91;;;4.16;75.95
75609;BME280;64194;51.044;13.780;2023-01-30T16:22:56;99738.00;;;4.23;75.89
75609;BME280;64194;51.044;13.780;2023-01-30T16:27:00;99733.16;;;4.33;75.74
75609;BME280;64194;51.044;13.780;2023-01-30T16:31:05;99748.19;;;4.31;75.76
75609;BME280;64194;51.044;13.780;2023-01-30T16:35:42;99734.25;;;4.29;74.79
75609;BME280;64194;51.044;13.780;2023-01-30T16:39:44;99731.56;;;4.30;76.00
75609;BME280;64194;51.044;13.780;2023-01-30T16:44:06;99749.47;;;4.41;75.39
75609;BME280;64194;51.044;13.780;2023-01-30T16:56:23;99754.88;;;4.56;72.93
75609;BME280;64194;51.044;13.780;2023-01-30T17:00:34;99758.72;;;4.68;72.64
75609;BME280;64194;51.044;13.780;2023-01-30T17:04:37;99762.41;;;4.83;72.74
75609;BME280;64194;51.044;13.780;2023-01-30T17:08:46;99778.91;;;4.86;72.94
75609;BME280;64194;51.044;13.780;2023-01-30T17:12:48;99774.78;;;4.81;72.83
75609;BME280;64194;51.044;13.780;2023-01-30T17:17:03;99797.06;;;4.74;74.56
75609;BME280;64194;51.044;13.780;2023-01-30T17:21:10;99781.88;;;4.60;76.05
75609;BME280;64194;51.044;13.780;2023-01-30T17:29:25;99788.00;;;4.42;77.49
75609;BME280;64194;51.044;13.780;2023-01-30T17:33:43;99785.03;;;4.29;77.02
75609;BME280;64194;51.044;13.780;2023-01-30T17:37:44;99776.28;;;4.29;76.74
75609;BME280;64194;51.044;13.780;2023-01-30T17:42:00;99786.47;;;4.36;75.52
75609;BME280;64194;51.044;13.780;2023-01-30T17:46:01;99786.91;;;4.46;75.25
75609;BME280;64194;51.044;13.780;2023-01-30T17:50:04;99822.66;;;4.50;76.68
75609;BME280;64194;51.044;13.780;2023-01-30T17:54:06;99821.38;;;4.40;78.11
75609;BME280;64194;51.044;13.780;2023-01-30T17:58:13;99809.19;;;4.37;79.29
75609;BME280;64194;51.044;13.780;2023-01-30T18:02:16;99832.56;;;4.25;78.27
75609;BME280;64194;51.044;13.780;2023-01-30T18:06:18;99837.06;;;4.21;78.87
75609;BME280;64194;51.044;13.780;2023-01-30T18:10:19;99835.28;;;4.21;78.81
75609;BME280;64194;51.044;13.780;2023-01-30T18:14:22;99856.97;;;4.27;77.87
75609;BME280;64194;51.044;13.780;2023-01-30T18:18:24;99868.03;;;4.35;77.14
75609;BME280;64194;51.044;13.780;2023-01-30T18:22:26;99872.38;;;4.36;76.45
75609;BME280;64194;51.044;13.780;2023-01-30T18:26:28;99865.41;;;4.35;77.80
75609;BME280;64194;51.044;13.780;2023-01-30T18:30:30;99879.25;;;4.38;76.10
75609;BME280;64194;51.044;13.780;2023-01-30T18:34:32;99877.22;;;4.45;76.47
75609;BME280;64194;51.044;13.780;2023-01-30T18:38:34;99887.50;;;4.51;76.09
75609;BME280;64194;51.044;13.780;2023-01-30T18:42:36;99910.16;;;4.53;74.49
75609;BME280;64194;51.044;13.780;2023-01-30T18:46:37;99907.06;;;4.64;72.88
75609;BME280;64194;51.044;13.780;2023-01-30T18:50:39;99910.44;;;4.68;72.62
75609;BME280;64194;51.044;13.780;2023-01-30T18:54:41;99930.59;;;4.67;72.93
75609;BME280;64194;51.044;13.780;2023-01-30T18:58:43;99944.53;;;4.69;72.80
75609;BME280;64194;51.044;13.780;2023-01-30T19:02:49;99945.97;;;4.76;71.87
75609;BME280;64194;51.044;13.780;2023-01-30T19:06:51;99957.97;;;4.83;71.37
75609;BME280;64194;51.044;13.780;2023-01-30T19:10:54;99965.66;;;4.88;71.25
75609;BME280;64194;51.044;13.780;2023-01-30T19:15:17;99977.41;;;4.99;71.02
75609;BME280;64194;51.044;13.780;2023-01-30T19:19:18;99990.56;;;4.99;71.55
75609;BME280;64194;51.044;13.780;2023-01-30T19:23:25;99992.16;;;5.03;71.61
75609;BME280;64194;51.044;13.780;2023-01-30T19:27:27;99992.16;;;5.03;70.60
75609;BME280;64194;51.044;13.780;2023-01-30T19:31:28;100013.19;;;5.03;70.70
75609;BME280;64194;51.044;13.780;2023-01-30T19:35:30;100014.06;;;5.04;71.07
75609;BME280;64194;51.044;13.780;2023-01-30T19:39:32;100039.41;;;5.07;71.05
75609;BME280;64194;51.044;13.780;2023-01-30T19:43:36;100038.28;;;5.12;72.81
75609;BME280;64194;51.044;13.780;2023-01-30T19:47:37;100043.59;;;5.11;71.88
75609;BME280;64194;51.044;13.780;2023-01-30T19:51:39;100049.69;;;5.13;72.71
75609;BME280;64194;51.044;13.780;2023-01-30T19:55:48;100058.22;;;5.18;73.15
75609;BME280;64194;51.044;13.780;2023-01-30T19:59:49;100080.16;;;5.18;71.47
75609;BME280;64194;51.044;13.780;2023-01-30T20:03:51;100084.56;;;5.18;70.69
75609;BME280;64194;51.044;13.780;2023-01-30T20:07:52;100075.06;;;5.34;73.38
75609;BME280;64194;51.044;13.780;2023-01-30T20:11:54;100086.38;;;5.36;69.63
75609;BME280;64194;51.044;13.780;2023-01-30T20:15:56;100100.41;;;5.36;71.47
75609;BME280;64194;51.044;13.780;2023-01-30T20:20:07;100108.25;;;5.38;71.21
75609;BME280;64194;51.044;13.780;2023-01-30T20:24:12;100105.66;;;5.36;69.31
75609;BME280;64194;51.044;13.780;2023-01-30T20:28:14;100115.22;;;5.39;71.16
75609;BME280;64194;51.044;13.780;2023-01-30T20:32:15;100105.59;;;5.38;69.58
75609;BME280;64194;51.044;13.780;2023-01-30T20:36:18;100101.47;;;5.32;68.32
75609;BME280;64194;51.044;13.780;2023-01-30T20:40:20;100092.44;;;5.38;70.69
75609;BME280;64194;51.044;13.780;2023-01-30T20:44:22;100101.41;;;5.34;70.55
75609;BME280;64194;51.044;13.780;2023-01-30T20:48:24;100113.75;;;5.32;68.48
75609;BME280;64194;51.044;13.780;2023-01-30T20:52:26;100130.41;;;5.32;68.37
75609;BME280;64194;51.044;13.780;2023-01-30T20:56:42;100137.47;;;5.32;70.95
75609;BME280;64194;51.044;13.780;2023-01-30T21:00:44;100135.22;;;5.23;71.30
75609;BME280;64194;51.044;13.780;2023-01-30T21:04:46;100146.66;;;5.22;70.41
75609;BME280;64194;51.044;13.780;2023-01-30T21:08:47;100170.06;;;5.07;69.09
75609;BME280;64194;51.044;13.780;2023-01-30T21:12:49;100166.91;;;4.99;68.92
75609;BME280;64194;51.044;13.780;2023-01-30T21:16:51;100168.91;;;4.93;71.38
75609;BME280;64194;51.044;13.780;2023-01-30T21:20:52;100165.38;;;4.72;69.92
75609;BME280;64194;51.044;13.780;2023-01-30T21:24:54;100171.38;;;4.76;71.01
75609;BME280;64194;51.044;13.780;2023-01-30T21:28:56;100185.50;;;4.95;71.14
75609;BME280;64194;51.044;13.780;2023-01-30T21:32:58;100192.34;;;4.99;70.29
75609;BME280;64194;51.044;13.780;2023-01-30T21:37:00;100188.63;;;5.04;69.38
75609;BME280;64194;51.044;13.780;2023-01-30T21:41:24;100183.34;;;5.04;69.19
75609;BME280;64194;51.044;13.780;2023-01-30T21:45:44;100196.22;;;5.12;71.73
75609;BME280;64194;51.044;13.780;2023-01-30T21:49:46;100217.63;;;5.03;74.44
75609;BME280;64194;51.044;13.780;2023-01-30T21:53:48;100211.22;;;4.88;78.89
75609;BME280;64194;51.044;13.780;2023-01-30T21:57:50;100215.66;;;4.64;80.85
75609;BME280;64194;51.044;13.780;2023-01-30T22:01:52;100227.22;;;4.37;78.91
75609;BME280;64194;51.044;13.780;2023-01-30T22:05:54;100240.56;;;4.31;78.70
75609;BME280;64194;51.044;13.780;2023-01-30T22:09:56;100235.44;;;4.28;77.64
75609;BME280;64194;51.044;13.780;2023-01-30T22:13:57;100239.75;;;4.31;78.33
75609;BME280;64194;51.044;13.780;2023-01-30T22:17:59;100241.38;;;4.33;77.22
75609;BME280;64194;51.044;13.780;2023-01-30T22:22:02;100252.75;;;4.34;77.92
75609;BME280;64194;51.044;13.780;2023-01-30T22:26:04;100237.63;;;4.40;78.56
75609;BME280;64194;51.044;13.780;2023-01-30T22:30:07;100250.59;;;4.45;75.66
75609;BME280;64194;51.044;13.780;2023-01-30T22:34:09;100266.16;;;4.51;76.86
75609;BME280;64194;51.044;13.780;2023-01-30T22:38:10;100262.72;;;4.49;75.39
75609;BME280;64194;51.044;13.780;2023-01-30T22:42:12;100279.31;;;4.51;75.74
75609;BME280;64194;51.044;13.780;2023-01-30T22:46:15;100287.97;;;4.53;77.47
75609;BME280;64194;51.044;13.780;2023-01-30T22:50:17;100284.91;;;4.42;76.71
75609;BME280;64194;51.044;13.780;2023-01-30T22:54:18;100300.09;;;4.34;75.72
75609;BME280;64194;51.044;13.780;2023-01-30T22:58:20;100304.31;;;4.38;76.75
75609;BME280;64194;51.044;13.780;2023-01-30T23:02:22;100297.50;;;4.32;75.61
75609;BME280;64194;51.044;13.780;2023-01-30T23:06:24;100299.28;;;4.32;77.08
75609;BME280;64194;51.044;13.780;2023-01-30T23:10:26;100309.00;;;4.30;77.21
75609;BME280;64194;51.044;13.780;2023-01-30T23:14:28;100311.19;;;4.42;76.66
75609;BME280;64194;51.044;13.780;2023-01-30T23:18:29;100306.63;;;4.47;75.90
75609;BME280;64194;51.044;13.780;2023-01-30T23:22:50;100304.50;;;4.56;75.60
75609;BME280;64194;51.044;13.780;2023-01-30T23:26:52;100317.66;;;4.56;71.35
75609;BME280;64194;51.044;13.780;2023-01-30T23:30:53;100321.03;;;4.60;71.45
75609;BME280;64194;51.044;13.780;2023-01-30T23:34:55;100324.47;;;4.62;72.64
75609;BME280;64194;51.044;13.780;2023-01-30T23:38:58;100330.03;;;4.53;74.04
75609;BME280;64194;51.044;13.780;2023-01-30T23:43:00;100331.28;;;4.43;78.45
75609;BME280;64194;51.044;13.780;2023-01-30T23:47:01;100341.84;;;4.18;78.72